Flight Track Log - Related Links

Times and Time Zones

All times are in EDT time to prevent confusion due to time zone crossing. See the N506TF flight status page for this flight to view local times or setup timezone preferences in your user account.

Time Position Orientation Groundspeed Altitude Reporting Facility
EDT Latitude Longitude Course Direction KTS MPH feet Rate Location/Type
Fri 12:57:35 39.3500 -84.4833 117° Southeast 200 230 2,200  Level Cincinnati TRACON
Fri 12:58:41 39.3167 -84.4000 117° Southeast 287 330 5,000 2,351 Climbing Cincinnati TRACON
Fri 12:59:12 39.2811 -84.3983 178° South 294 338 6,000 3,613 Climbing Indianapolis Center
Fri 13:00:14 39.2086 -84.3928 177° South 264 304 10,600 2,992 Climbing Indianapolis Center
Fri 13:05:37 38.9700 -84.7450 177° South 259 298 25,200 2,665 Climbing FlightAware ADS-B
Fri 13:06:12 38.9510 -84.7900 242° Southwest 254 292 26,500 1,906 Climbing FlightAware ADS-B
Fri 13:07:02 38.9220 -84.8520 239° Southwest 260 299 27,900 2,000 Climbing FlightAware ADS-B
Fri 13:07:42 38.8970 -84.9070 240° Southwest 244 281 29,500 2,700 Climbing FlightAware ADS-B
Fri 13:08:22 38.8720 -84.9500 233° Southwest 214 246 31,500 1,765 Climbing FlightAware ADS-B
Fri 13:09:07 38.8480 -84.9980 237° Southwest 236 272 32,000 1,200 Climbing FlightAware ADS-B
Fri 13:09:47 38.8200 -85.0460 233° Southwest 231 266 33,200 1,553 Climbing FlightAware ADS-B
Fri 13:10:32 38.7930 -85.0940 234° Southwest 229 264 34,200 900 Climbing FlightAware ADS-B
Fri 13:11:07 38.7720 -85.1300 233° Southwest 230 265 34,400 1,800 Climbing FlightAware ADS-B
Fri 13:11:52 38.7440 -85.1800 234° Southwest 204 235 36,600 2,133 Climbing FlightAware ADS-B
Fri 13:12:37 38.7190 -85.2240 234° Southwest 197 227 37,600 900 Climbing FlightAware ADS-B
Fri 13:13:12 38.7010 -85.2570 235° Southwest 214 246 37,800 300 Climbing FlightAware ADS-B
Fri 13:13:57 38.6720 -85.3070 233° Southwest 236 272 38,000 533 Climbing FlightAware ADS-B
Fri 13:14:42 38.6430 -85.3580 234° Southwest 237 273 38,600 918 Climbing FlightAware ADS-B
Fri 13:15:22 38.6170 -85.4030 234° Southwest 231 266 39,300 776 Climbing FlightAware ADS-B
Fri 13:16:07 38.5890 -85.4530 234° Southwest 241 277 39,700 494 Climbing FlightAware ADS-B
Fri 13:16:47 38.5630 -85.4990 234° Southwest 250 288 40,000 675 Climbing FlightAware ADS-B
Fri 13:17:27 38.5350 -85.5460 233° Southwest 245 282 40,600 847 Climbing FlightAware ADS-B
Fri 13:18:12 38.5060 -85.5980 235° Southwest 240 276 41,200 706 Climbing FlightAware ADS-B
Fri 13:18:52 38.4790 -85.6440 233° Southwest 241 277 41,600 565 Climbing FlightAware ADS-B
Fri 13:19:37 38.4490 -85.6970 234° Southwest 241 277 42,000 494 Climbing FlightAware ADS-B
Fri 13:20:17 38.4220 -85.7430 233° Southwest 244 281 42,300 375 Climbing FlightAware ADS-B
Fri 13:20:57 38.3950 -85.7910 234° Southwest 248 285 42,500 353 Climbing FlightAware ADS-B
Fri 13:21:42 38.3650 -85.8420 233° Southwest 246 283 42,800 353 Climbing FlightAware ADS-B
Fri 13:22:22 38.3380 -85.8890 234° Southwest 250 288 43,000 212 Climbing FlightAware ADS-B
Fri 13:23:07 38.3070 -85.9430 234° Southwest 257 296 43,100  Climbing FlightAware ADS-B
Fri 13:23:47 38.2770 -85.9940 233° Southwest 267 307 43,000 -80 Descending FlightAware ADS-B
Fri 13:24:22 38.2530 -86.0350 233° Southwest 273 314 43,000  Level FlightAware ADS-B
Fri 13:25:12 38.2140 -86.1020 233° Southwest 283 326 43,000  Level FlightAware ADS-B
Fri 13:25:52 38.1830 -86.1550 233° Southwest 290 334 43,000  Level FlightAware ADS-B
Fri 13:26:32 38.1510 -86.2100 234° Southwest 295 339 43,000  Level FlightAware ADS-B
Fri 13:27:17 38.1130 -86.2750 233° Southwest 300 345 43,000  Level FlightAware ADS-B
Fri 13:27:52 38.0840 -86.3230 233° Southwest 303 349 43,000  Level FlightAware ADS-B
Fri 13:28:37 38.0450 -86.3890 233° Southwest 306 352 43,000  Level FlightAware ADS-B
Fri 13:29:17 38.0120 -86.4460 234° Southwest 308 354 43,000  Level FlightAware ADS-B
Fri 13:29:57 37.9760 -86.5060 233° Southwest 310 357 43,000  Level FlightAware ADS-B
Fri 13:30:42 37.9390 -86.5690 233° Southwest 312 359 43,000  Level FlightAware ADS-B
Fri 13:31:22 37.9040 -86.6280 233° Southwest 312 359 43,000  Level FlightAware ADS-B
Fri 13:32:07 37.8650 -86.6950 234° Southwest 313 360 43,000  Level FlightAware ADS-B
Fri 13:32:47 37.8300 -86.7530 233° Southwest 313 360 43,000  Level FlightAware ADS-B
Fri 13:33:21 37.7986 -86.8057 233° Southwest 43,000  Level FlightAware ADS-B
Fri 13:33:33 37.7879 -86.8237 233° Southwest 314 361 43,000  Level FlightAware ADS-B
Fri 13:34:12 37.7560 -86.8780 233° Southwest 313 360 43,000  Level FlightAware ADS-B
Fri 13:34:24 37.7439 -86.8976 232° Southwest 314 361 43,000  Level FlightAware ADS-B
Fri 13:35:37 37.6820 -87.0010 233° Southwest 316 364 43,000  Level FlightAware ADS-B
Fri 13:36:17 37.6460 -87.0600 232° Southwest 316 364 43,000  Level FlightAware ADS-B
Fri 13:36:57 37.6110 -87.1200 234° Southwest 317 365 43,000  Level FlightAware ADS-B
Fri 13:37:42 37.5700 -87.1870 232° Southwest 317 365 43,000  Level FlightAware ADS-B
Fri 13:38:22 37.5350 -87.2450 233° Southwest 317 365 43,000  Level FlightAware ADS-B
Fri 13:39:07 37.4980 -87.3070 233° Southwest 317 365 43,000  Level FlightAware ADS-B
Fri 13:39:47 37.4600 -87.3690 232° Southwest 316 364 43,000  Level FlightAware ADS-B
Fri 13:40:27 37.4240 -87.4280 232° Southwest 317 365 43,000  Level FlightAware ADS-B
Fri 13:41:12 37.3850 -87.4930 233° Southwest 318 366 43,000  Level FlightAware ADS-B
Fri 13:41:52 37.3490 -87.5520 233° Southwest 317 365 43,000  Level FlightAware ADS-B
Fri 13:42:37 37.3090 -87.6170 232° Southwest 318 366 43,000  Level FlightAware ADS-B
Fri 13:43:17 37.2740 -87.6750 233° Southwest 317 365 43,000  Level FlightAware ADS-B
Fri 13:43:57 37.2370 -87.7360 233° Southwest 316 364 43,000  Level FlightAware ADS-B
Fri 13:44:42 37.1970 -87.8000 232° Southwest 317 365 43,000  Level FlightAware ADS-B
Fri 13:45:22 37.1610 -87.8590 233° Southwest 318 366 43,000  Level FlightAware ADS-B
Fri 13:46:07 37.1220 -87.9230 233° Southwest 319 367 43,000  Level FlightAware ADS-B
Fri 13:46:47 37.0830 -87.9840 231° Southwest 319 367 43,000  Level FlightAware ADS-B
Fri 13:47:27 37.0480 -88.0420 233° Southwest 320 368 43,000  Level FlightAware ADS-B
Fri 13:48:12 37.0060 -88.1090 232° Southwest 320 368 43,000  Level FlightAware ADS-B
Fri 13:48:52 36.9740 -88.1610 232° Southwest 319 367 43,000  Level FlightAware ADS-B
Fri 13:49:27 36.9400 -88.2170 233° Southwest 317 365 43,000  Level FlightAware ADS-B
Fri 13:50:17 36.8970 -88.2850 232° Southwest 316 364 43,000  Level FlightAware ADS-B
Fri 13:50:52 36.8640 -88.3380 232° Southwest 316 364 43,000  Level FlightAware ADS-B
Fri 13:51:42 36.8190 -88.4100 232° Southwest 314 361 43,000  Level FlightAware ADS-B
Fri 13:52:22 36.7830 -88.4680 232° Southwest 315 362 43,000  Level FlightAware ADS-B
Fri 13:53:02 36.7500 -88.5200 232° Southwest 315 362 43,000  Level FlightAware ADS-B
Fri 13:53:47 36.7060 -88.5910 232° Southwest 315 362 43,000  Level FlightAware ADS-B
Fri 13:54:27 36.6700 -88.6480 232° Southwest 314 361 43,000  Level FlightAware ADS-B
Fri 13:55:12 36.6300 -88.7110 232° Southwest 314 361 43,000  Level FlightAware ADS-B
Fri 13:55:52 36.5930 -88.7690 232° Southwest 315 362 43,000  Level FlightAware ADS-B
Fri 13:56:47 36.5480 -88.8400 232° Southwest 315 362 43,000  Level FlightAware ADS-B
Fri 13:57:27 36.5160 -88.8880 230° Southwest 315 362 43,000  Level FlightAware ADS-B
Fri 13:58:07 36.4850 -88.9360 231° Southwest 315 362 43,000  Level FlightAware ADS-B
Fri 13:58:57 36.4460 -88.9960 231° Southwest 315 362 43,000  Level FlightAware ADS-B
Fri 13:59:37 36.4150 -89.0440 231° Southwest 315 362 43,000  Level FlightAware ADS-B
Fri 14:00:17 36.3840 -89.0910 231° Southwest 315 362 43,000  Level FlightAware ADS-B
Fri 14:00:57 36.3530 -89.1390 231° Southwest 315 362 43,000  Level FlightAware ADS-B
Fri 14:01:37 36.3220 -89.1870 231° Southwest 315 362 43,000  Level FlightAware ADS-B
Fri 14:02:27 36.2830 -89.2470 231° Southwest 315 362 43,000  Level FlightAware ADS-B
Fri 14:03:07 36.2510 -89.2950 230° Southwest 315 362 43,000  Level FlightAware ADS-B
Fri 14:03:47 36.2200 -89.3420 231° Southwest 315 362 43,000  Level FlightAware ADS-B
Fri 14:04:27 36.1890 -89.3900 231° Southwest 315 362 43,000  Level FlightAware ADS-B
Fri 14:05:07 36.1580 -89.4380 231° Southwest 315 362 43,000  Level FlightAware ADS-B
Fri 14:05:57 36.1190 -89.4970 231° Southwest 315 362 43,000  Level FlightAware ADS-B
Fri 14:07:09 35.9881 -89.7081 231° Southwest 317 365 43,000  Level Memphis Center
Fri 14:08:09 35.9342 -89.7931 232° Southwest 317 365 43,000  Level Memphis Center
Fri 14:09:09 35.8803 -89.8753 231° Southwest 317 365 43,000  Level Memphis Center
Fri 14:10:09 35.8244 -89.9603 231° Southwest 317 365 43,000  Level Memphis Center
Fri 14:11:09 35.7703 -90.0422 231° Southwest 322 371 43,000  Level Memphis Center
Fri 14:12:09 35.7164 -90.1244 231° Southwest 322 371 43,000  Level Memphis Center
Fri 14:13:09 35.6644 -90.2114 234° Southwest 307 353 43,000  Level Memphis Center
Fri 14:14:09 35.6122 -90.2931 232° Southwest 300 345 43,000  Level Memphis Center
Fri 14:15:09 35.5581 -90.3725 230° Southwest 300 345 43,000  Level Memphis Center
Fri 14:16:09 35.5081 -90.4514 232° Southwest 300 345 43,000  Level Memphis Center
Fri 14:17:09 35.4536 -90.5303 230° Southwest 300 345 43,000  Level Memphis Center
Fri 14:18:09 35.4014 -90.6092 231° Southwest 300 345 43,000  Level Memphis Center
Fri 14:19:09 35.3469 -90.6881 230° Southwest 305 351 43,000  Level Memphis Center
Fri 14:20:09 35.2989 -90.7617 231° Southwest 305 351 43,000  Level Memphis Center
Fri 14:21:09 35.2464 -90.8428 232° Southwest 305 351 43,000  Level Memphis Center
Fri 14:22:09 35.1958 -90.9186 231° Southwest 305 351 43,000  Level Memphis Center
Fri 14:23:09 35.1433 -90.9944 230° Southwest 305 351 43,000  Level Memphis Center
Fri 14:24:09 35.0889 -91.0778 231° Southwest 305 351 43,000  Level Memphis Center
Fri 14:25:09 35.0319 -91.1558 228° Southwest 305 351 43,000  Level Memphis Center
Fri 14:26:09 34.9792 -91.2392 232° Southwest 305 351 43,000  Level Memphis Center
Fri 14:27:09 34.9181 -91.3244 229° Southwest 310 357 43,000  Level Memphis Center
Fri 14:28:09 34.8633 -91.4050 230° Southwest 310 357 43,000  Level Memphis Center
Fri 14:29:09 34.8083 -91.4825 229° Southwest 310 357 43,000  Level Memphis Center
Fri 14:30:09 34.7533 -91.5653 231° Southwest 303 349 43,000  Level Memphis Center
Fri 14:31:09 34.6961 -91.6453 229° Southwest 314 361 43,000  Level Memphis Center
Fri 14:32:09 34.6431 -91.7228 230° Southwest 309 356 43,000  Level Memphis Center
Fri 14:33:09 34.5922 -91.7978 231° Southwest 304 350 43,000  Level Memphis Center
Fri 14:34:09 34.5350 -91.8800 230° Southwest 309 356 43,000  Level Memphis Center
Fri 14:35:09 34.4797 -91.9597 230° Southwest 309 356 43,000  Level Memphis Center
Fri 14:36:09 34.4222 -92.0392 229° Southwest 309 356 43,000  Level Memphis Center
Fri 14:37:09 34.3669 -92.1211 231° Southwest 309 356 43,000  Level Memphis Center
Fri 14:38:09 34.3094 -92.2003 229° Southwest 314 361 43,000  Level Memphis Center
Fri 14:39:09 34.2539 -92.2819 231° Southwest 314 361 43,000  Level Memphis Center
Fri 14:40:09 34.1986 -92.3586 229° Southwest 314 361 43,000  Level Memphis Center
Fri 14:41:09 34.1428 -92.4403 230° Southwest 320 368 43,000  Level Memphis Center
Fri 14:42:09 34.0850 -92.5242 230° Southwest 320 368 43,000  Level Memphis Center
Fri 14:43:09 34.0294 -92.6103 232° Southwest 326 375 43,000  Level Memphis Center
Fri 14:44:09 33.9694 -92.6939 229° Southwest 326 375 43,000  Level Memphis Center
Fri 14:51:33 33.5360 -93.2934 229° Southwest 314 361 43,000  Level FlightAware ADS-B
Fri 14:52:04 33.5068 -93.3340 229° Southwest 314 361 43,000  Level FlightAware ADS-B
Fri 14:54:17 33.3807 -93.5087 229° Southwest 43,000  Level FlightAware ADS-B
Fri 14:54:25 33.3724 -93.5201 229° Southwest 315 362 43,000  Level FlightAware ADS-B
Fri 14:55:14 33.3258 -93.5843 229° Southwest 315 362 43,000  Level FlightAware ADS-B
Fri 14:58:04 33.1641 -93.8063 229° Southwest 314 361 43,000  Level FlightAware ADS-B
Fri 15:01:33 32.9655 -94.0768 229° Southwest 310 357 43,000  Level FlightAware ADS-B
Fri 15:03:05 32.8525 -94.1630 213° Southwest 43,000  Level FlightAware ADS-B
Fri 15:03:24 32.8292 -94.1791 210° Southwest 308 354 43,000  Level FlightAware ADS-B
Fri 15:05:36 32.6740 -94.2848 210° Southwest 286 329 43,000  Level FlightAware ADS-B
Fri 15:05:52 32.6555 -94.2974 210° Southwest 285 328 43,000  Level FlightAware ADS-B
Fri 15:06:22 32.6210 -94.3208 210° Southwest 285 328 43,000  Level FlightAware ADS-B
Fri 15:06:38 32.6023 -94.3336 210° Southwest 286 329 43,000  Level FlightAware ADS-B
Fri 15:06:53 32.5850 -94.3453 210° Southwest 288 331 43,000  Level FlightAware ADS-B
Fri 15:07:09 32.5671 -94.3575 210° Southwest 289 333 43,000  Level FlightAware ADS-B
Fri 15:07:23 32.5497 -94.3692 210° Southwest 289 333 43,000  Level FlightAware ADS-B
Fri 15:07:40 32.5310 -94.3818 210° Southwest 289 333 43,000  Level FlightAware ADS-B
Fri 15:08:10 32.4951 -94.4061 210° Southwest 290 334 43,000  Level FlightAware ADS-B
Fri 15:09:01 32.4357 -94.4462 210° Southwest 292 336 43,000  Level FlightAware ADS-B
Fri 15:09:32 32.3997 -94.4704 210° Southwest 292 336 43,000  Level FlightAware ADS-B
Fri 15:10:36 32.3247 -94.5210 210° Southwest 292 336 43,000  Level FlightAware ADS-B
Fri 15:11:20 32.2725 -94.5561 210° Southwest 292 336 43,000  Level FlightAware ADS-B
Fri 15:11:57 32.2293 -94.5852 210° Southwest 294 338 43,000  Level FlightAware ADS-B
Fri 15:12:02 32.2229 -94.5895 210° Southwest 294 338 43,000  Level FlightAware ADS-B
Fri 15:12:28 32.1926 -94.6098 210° Southwest 294 338 43,000  Level FlightAware ADS-B
Fri 15:12:35 32.1841 -94.6155 210° Southwest 294 338 43,000  Level FlightAware ADS-B
Fri 15:12:58 32.1568 -94.6339 210° Southwest 295 339 43,000  Level FlightAware ADS-B
Fri 15:13:28 32.1215 -94.6575 210° Southwest 296 341 43,000  Level FlightAware ADS-B
Fri 15:13:47 32.0987 -94.6728 210° Southwest 296 341 43,000  Level FlightAware ADS-B
Fri 15:13:59 32.0844 -94.6824 210° Southwest 296 341 43,000  Level FlightAware ADS-B
Fri 15:14:17 32.0628 -94.6968 209° Southwest 297 342 43,000  Level FlightAware ADS-B
Fri 15:14:30 32.0474 -94.7071 210° Southwest 297 342 43,000  Level FlightAware ADS-B
Fri 15:14:57 32.0149 -94.7288 210° Southwest 298 343 43,000  Level FlightAware ADS-B
Fri 15:15:08 32.0021 -94.7374 210° Southwest 298 343 43,000  Level FlightAware ADS-B
Fri 15:15:28 31.9777 -94.7536 209° Southwest 298 343 43,000  Level FlightAware ADS-B
Fri 15:15:38 31.9658 -94.7616 210° Southwest 298 343 43,000  Level FlightAware ADS-B
Fri 15:15:59 31.9412 -94.7780 209° Southwest 298 343 43,000  Level FlightAware ADS-B
Fri 15:16:08 31.9297 -94.7856 209° Southwest 298 343 43,000  Level FlightAware ADS-B
Fri 15:16:29 31.9052 -94.8021 210° Southwest 298 343 43,000  Level FlightAware ADS-B
Fri 15:16:38 31.8935 -94.8098 209° Southwest 298 343 43,000  Level FlightAware ADS-B
Fri 15:17:08 31.8580 -94.8335 210° Southwest 298 343 43,000  Level FlightAware ADS-B
Fri 15:17:39 31.8211 -94.8580 209° Southwest 299 344 43,000  Level FlightAware ADS-B
Fri 15:17:47 31.8108 -94.8649 210° Southwest 298 343 43,000  Level FlightAware ADS-B
Fri 15:18:10 31.7833 -94.8831 209° Southwest 298 343 43,000  Level FlightAware ADS-B
Fri 15:18:19 31.7725 -94.8903 210° Southwest 298 343 43,000  Level FlightAware ADS-B
Fri 15:18:40 31.7475 -94.9068 209° Southwest 297 342 43,000  Level FlightAware ADS-B
Fri 15:18:53 31.7315 -94.9174 209° Southwest 296 341 43,000  Level FlightAware ADS-B
Fri 15:19:11 31.7103 -94.9315 210° Southwest 296 341 43,000  Level FlightAware ADS-B
Fri 15:19:27 31.6914 -94.9440 209° Southwest 296 341 43,000  Level FlightAware ADS-B
Fri 15:19:41 31.6745 -94.9552 209° Southwest 296 341 43,000  Level FlightAware ADS-B
Fri 15:19:58 31.6548 -94.9683 210° Southwest 296 341 43,000  Level FlightAware ADS-B
Fri 15:20:12 31.6383 -94.9792 209° Southwest 295 339 43,000  Level FlightAware ADS-B
Fri 15:20:28 31.6186 -94.9922 209° Southwest 294 338 43,000  Level FlightAware ADS-B
Fri 15:20:42 31.6025 -95.0030 210° Southwest 294 338 43,000  Level FlightAware ADS-B
Fri 15:21:04 31.5763 -95.0203 209° Southwest 294 338 43,000  Level FlightAware ADS-B
Fri 15:21:12 31.5663 -95.0268 209° Southwest 294 338 43,000  Level FlightAware ADS-B
Fri 15:21:40 31.5336 -95.0484 209° Southwest 294 338 43,000  Level FlightAware ADS-B
Fri 15:21:43 31.5302 -95.0506 209° Southwest 295 339 43,000  Level FlightAware ADS-B
Fri 15:22:14 31.4931 -95.0752 209° Southwest 295 339 43,000  Level FlightAware ADS-B
Fri 15:22:17 31.4889 -95.0779 209° Southwest 295 339 43,000  Level FlightAware ADS-B
Fri 15:22:45 31.4557 -95.0997 209° Southwest 296 341 43,000  Level FlightAware ADS-B
Fri 15:22:48 31.4529 -95.1016 210° Southwest 295 339 43,000  Level FlightAware ADS-B
Fri 15:23:16 31.4189 -95.1240 209° Southwest 296 341 43,000  Level FlightAware ADS-B
Fri 15:23:18 31.4168 -95.1254 210° Southwest 296 341 43,000  Level FlightAware ADS-B
Fri 15:23:47 31.3825 -95.1480 209° Southwest 295 339 43,000  Level FlightAware ADS-B
Fri 15:23:48 31.3806 -95.1492 208° Southwest 295 339 43,000  Level FlightAware ADS-B
Fri 15:24:18 31.3448 -95.1727 209° Southwest 294 338 43,000  Level FlightAware ADS-B
Fri 15:24:21 31.3418 -95.1747 210° Southwest 294 338 43,000  Level FlightAware ADS-B
Fri 15:24:49 31.3085 -95.1965 209° Southwest 293 337 43,000  Level FlightAware ADS-B
Fri 15:24:57 31.2993 -95.2026 210° Southwest 293 337 43,000  Level FlightAware ADS-B
Fri 15:25:19 31.2726 -95.2202 209° Southwest 293 337 43,000  Level FlightAware ADS-B
Fri 15:25:28 31.2629 -95.2265 209° Southwest 293 337 43,000  Level FlightAware ADS-B
Fri 15:25:54 31.2323 -95.2466 209° Southwest 293 337 43,000  Level FlightAware ADS-B
Fri 15:26:00 31.2248 -95.2515 209° Southwest 293 337 43,000  Level FlightAware ADS-B
Fri 15:26:24 31.1965 -95.2700 209° Southwest 292 336 43,000  Level FlightAware ADS-B
Fri 15:26:30 31.1893 -95.2746 209° Southwest 292 336 43,000  Level FlightAware ADS-B
Fri 15:26:54 31.1607 -95.2934 209° Southwest 292 336 43,000  Level FlightAware ADS-B
Fri 15:27:02 31.1513 -95.2995 209° Southwest 291 335 43,000  Level FlightAware ADS-B
Fri 15:27:25 31.1242 -95.3172 209° Southwest 291 335 43,000  Level FlightAware ADS-B
Fri 15:27:32 31.1157 -95.3228 209° Southwest 291 335 43,000  Level FlightAware ADS-B
Fri 15:27:55 31.0888 -95.3404 209° Southwest 294 338 43,000  Level FlightAware ADS-B
Fri 15:28:03 31.0799 -95.3463 210° Southwest 294 338 43,000  Level FlightAware ADS-B
Fri 15:28:25 31.0533 -95.3636 209° Southwest 294 338 43,000  Level FlightAware ADS-B
Fri 15:28:33 31.0436 -95.3699 209° Southwest 294 338 43,000  Level FlightAware ADS-B
Fri 15:28:55 31.0174 -95.3870 209° Southwest 294 338 43,000  Level FlightAware ADS-B
Fri 15:29:07 31.0042 -95.3957 209° Southwest 292 336 43,000  Level FlightAware ADS-B
Fri 15:29:26 30.9815 -95.4104 209° Southwest 292 336 43,000  Level FlightAware ADS-B
Fri 15:29:38 30.9674 -95.4195 209° Southwest 292 336 43,000  Level FlightAware ADS-B
Fri 15:29:56 30.9455 -95.4338 209° Southwest 292 336 43,000  Level FlightAware ADS-B
Fri 15:30:09 30.9299 -95.4439 209° Southwest 292 336 43,000  Level FlightAware ADS-B
Fri 15:30:29 30.9069 -95.4589 209° Southwest 293 337 43,000  Level FlightAware ADS-B
Fri 15:30:40 30.8944 -95.4671 209° Southwest 294 338 43,000  Level FlightAware ADS-B
Fri 15:31:00 30.8699 -95.4829 209° Southwest 292 336 43,000  Level FlightAware ADS-B
Fri 15:31:19 30.8477 -95.4974 209° Southwest 292 336 43,000  Level FlightAware ADS-B
Fri 15:31:31 30.8341 -95.5062 209° Southwest 292 336 43,000  Level FlightAware ADS-B
Fri 15:31:49 30.8122 -95.5204 209° Southwest 292 336 43,000  Level FlightAware ADS-B
Fri 15:31:54 30.8067 -95.5240 209° Southwest 291 335 43,000  Level FlightAware ADS-B
Fri 15:32:22 30.7733 -95.5456 209° Southwest 290 334 43,000  Level FlightAware ADS-B
Fri 15:32:24 30.7711 -95.5471 210° Southwest 290 334 43,000  Level FlightAware ADS-B
Fri 15:32:55 30.7355 -95.5701 209° Southwest 290 334 43,000  Level FlightAware ADS-B
Fri 15:33:02 30.7268 -95.5758 209° Southwest 290 334 43,000  Level FlightAware ADS-B
Fri 15:33:25 30.7001 -95.5931 209° Southwest 290 334 43,000  Level FlightAware ADS-B
Fri 15:33:34 30.6894 -95.6000 209° Southwest 290 334 43,000  Level FlightAware ADS-B
Fri 15:33:55 30.6648 -95.6159 209° Southwest 291 335 43,000  Level FlightAware ADS-B
Fri 15:34:04 30.6538 -95.6229 209° Southwest 291 335 43,000  Level FlightAware ADS-B
Fri 15:34:27 30.6268 -95.6403 209° Southwest 292 336 43,000  Level FlightAware ADS-B
Fri 15:34:34 30.6183 -95.6458 209° Southwest 292 336 43,000  Level FlightAware ADS-B
Fri 15:34:57 30.5912 -95.6633 209° Southwest 292 336 43,000  Level FlightAware ADS-B
Fri 15:35:07 30.5795 -95.6709 209° Southwest 292 336 43,000  Level FlightAware ADS-B
Fri 15:35:27 30.5558 -95.6861 209° Southwest 292 336 43,000  Level FlightAware ADS-B
Fri 15:35:37 30.5440 -95.6938 209° Southwest 292 336 43,000  Level FlightAware ADS-B
Fri 15:35:59 30.5187 -95.7100 209° Southwest 292 336 43,000  Level FlightAware ADS-B
Fri 15:36:12 30.5035 -95.7198 209° Southwest 292 336 43,000  Level FlightAware ADS-B
Fri 15:36:29 30.4828 -95.7331 209° Southwest 292 336 43,000  Level FlightAware ADS-B
Fri 15:36:45 30.4638 -95.7453 209° Southwest 292 336 43,000  Level FlightAware ADS-B
Fri 15:37:00 30.4460 -95.7567 209° Southwest 293 337 43,000  Level FlightAware ADS-B
Fri 15:37:17 30.4267 -95.7691 209° Southwest 293 337 43,000  Level FlightAware ADS-B
Fri 15:37:31 30.4093 -95.7803 209° Southwest 293 337 43,000  Level FlightAware ADS-B
Fri 15:37:47 30.3904 -95.7924 209° Southwest 292 336 43,000  Level FlightAware ADS-B
Fri 15:38:02 30.3735 -95.8033 209° Southwest 292 336 43,000  Level FlightAware ADS-B
Fri 15:38:17 30.3547 -95.8153 209° Southwest 293 337 43,000  Level FlightAware ADS-B
Fri 15:38:33 30.3364 -95.8270 209° Southwest 293 337 43,000  Level FlightAware ADS-B
Fri 15:38:48 30.3188 -95.8382 209° Southwest 293 337 43,000  Level FlightAware ADS-B
Fri 15:39:04 30.2996 -95.8506 209° Southwest 293 337 43,000  Level FlightAware ADS-B
Fri 15:39:19 30.2822 -95.8618 209° Southwest 293 337 43,000  Level FlightAware ADS-B
Fri 15:39:34 30.2633 -95.8738 209° Southwest 294 338 43,000  Level FlightAware ADS-B
Fri 15:39:49 30.2459 -95.8850 209° Southwest 294 338 43,000  Level FlightAware ADS-B
Fri 15:40:05 30.2266 -95.8973 209° Southwest 294 338 43,000  Level FlightAware ADS-B
Fri 15:40:19 30.2099 -95.9080 209° Southwest 294 338 43,000  Level FlightAware ADS-B
Fri 15:40:35 30.1908 -95.9203 209° Southwest 295 339 43,000  Level FlightAware ADS-B
Fri 15:40:49 30.1740 -95.9309 209° Southwest 295 339 43,000  Level FlightAware ADS-B
Fri 15:41:09 30.1499 -95.9464 209° Southwest 295 339 43,000  Level FlightAware ADS-B
Fri 15:41:19 30.1381 -95.9539 209° Southwest 295 339 43,000  Level FlightAware ADS-B
Fri 15:41:40 30.1140 -95.9693 209° Southwest 295 339 43,000  Level FlightAware ADS-B
Fri 15:41:50 30.1018 -95.9771 209° Southwest 295 339 43,000  Level FlightAware ADS-B
Fri 15:42:10 30.0780 -95.9923 209° Southwest 296 341 43,000  Level FlightAware ADS-B
Fri 15:42:21 30.0647 -96.0008 209° Southwest 296 341 43,000  Level FlightAware ADS-B
Fri 15:42:40 30.0410 -96.0159 209° Southwest 296 341 43,000  Level FlightAware ADS-B
Fri 15:42:52 30.0268 -96.0250 209° Southwest 296 341 43,000  Level FlightAware ADS-B
Fri 15:43:11 30.0047 -96.0390 209° Southwest 297 342 43,000  Level FlightAware ADS-B
Fri 15:43:24 29.9892 -96.0488 209° Southwest 297 342 43,000 -200 Level FlightAware ADS-B
Fri 15:43:41 29.9685 -96.0620 209° Southwest 301 346 42,900 -600 Descending FlightAware ADS-B
Fri 15:43:54 29.9523 -96.0724 209° Southwest 307 353 42,700 -774 Descending FlightAware ADS-B
Fri 15:44:12 29.9294 -96.0870 209° Southwest 313 360 42,500 -800 Descending FlightAware ADS-B
Fri 15:44:24 29.9138 -96.0969 209° Southwest 316 364 42,300 -800 Descending FlightAware ADS-B
Fri 15:44:42 29.8908 -96.1115 209° Southwest 322 371 42,100 -800 Descending FlightAware ADS-B
Fri 15:44:54 29.8748 -96.1215 208° Southwest 325 374 41,900 -882 Descending FlightAware ADS-B
Fri 15:45:16 29.8464 -96.1394 209° Southwest 331 381 41,600 -800 Descending FlightAware ADS-B
Fri 15:45:24 29.8347 -96.1468 209° Southwest 333 383 41,500 -667 Descending FlightAware ADS-B
Fri 15:45:34 29.8215 -96.1564 212° Southwest 329 379 41,400 -923 Descending FlightAware ADS-B
Fri 15:45:37 29.8188 -96.1588 218° Southwest 328 377 41,300 -1,500 Descending FlightAware ADS-B
Fri 15:45:38 29.8171 -96.1605 221° Southwest 327 376 41,300 -750 Level FlightAware ADS-B
Fri 15:45:45 29.8100 -96.1682 223° Southwest 324 373 41,200 -545 Descending FlightAware ADS-B
Fri 15:45:49 29.8061 -96.1733 229° Southwest 322 371 41,200 -857 Level FlightAware ADS-B
Fri 15:45:52 29.8030 -96.1778 232° Southwest 321 369 41,100 -1,000 Descending FlightAware ADS-B
Fri 15:45:55 29.8000 -96.1827 235° Southwest 320 368 41,100 -857 Level FlightAware ADS-B
Fri 15:45:59 29.7969 -96.1885 238° Southwest 319 367 41,000 -1,333 Descending FlightAware ADS-B
Fri 15:46:04 29.7941 -96.1945 242° Southwest 318 366 40,900 -1,000 Descending FlightAware ADS-B
Fri 15:46:05 29.7931 -96.1970 245° Southwest 317 365 40,900 -857 Level FlightAware ADS-B
Fri 15:46:11 29.7898 -96.2060 247° West 316 364 40,800 -667 Descending FlightAware ADS-B
Fri 15:46:14 29.7885 -96.2105 252° West 315 362 40,800 -545 Level FlightAware ADS-B
Fri 15:46:22 29.7856 -96.2239 256° West 314 361 40,700 -667 Descending FlightAware ADS-B
Fri 15:46:23 29.7853 -96.2255 258° West 314 361 40,700 -1,500 Level FlightAware ADS-B
Fri 15:46:26 29.7846 -96.2307 261° West 314 361 40,600 -1,500 Descending FlightAware ADS-B
Fri 15:46:31 29.7841 -96.2380 265° West 314 361 40,500 -857 Descending FlightAware ADS-B
Fri 15:46:40 29.7842 -96.2541 270° West 315 362 40,400 -938 Descending FlightAware ADS-B
Fri 15:47:03 29.7873 -96.2922 275° West 310 357 40,000 -1,200 Descending FlightAware ADS-B
Fri 15:47:10 29.7881 -96.3033 275° West 309 356 39,800 -1,455 Descending FlightAware ADS-B
Fri 15:47:36 29.7912 -96.3454 275° West 298 343 39,200 -1,161 Descending FlightAware ADS-B
Fri 15:47:41 29.7918 -96.3524 276° West 295 339 39,200 -968 Level FlightAware ADS-B
Fri 15:48:07 29.7950 -96.3920 275° West 282 325 38,700 -1,000 Descending FlightAware ADS-B
Fri 15:48:11 29.7954 -96.3979 274° West 277 319 38,700 -938 Level FlightAware ADS-B
Fri 15:48:39 29.7985 -96.4388 275° West 266 306 38,200 -1,000 Descending FlightAware ADS-B
Fri 15:48:41 29.7987 -96.4417 275° West 264 304 38,200 -1,091 Level FlightAware ADS-B
Fri 15:49:12 29.8018 -96.4836 275° West 255 293 37,600 -1,125 Descending FlightAware ADS-B
Fri 15:49:13 29.8019 -96.4842 281° West 260 299 37,600 -1,000 Level FlightAware ADS-B
Fri 15:49:42 29.8048 -96.5240 275° West 249 287 37,100 -1,059 Descending FlightAware ADS-B
Fri 15:49:47 29.8052 -96.5306 274° West 249 287 37,000 -938 Descending FlightAware ADS-B
Fri 15:50:14 29.8078 -96.5654 275° West 243 280 36,600 -973 Descending FlightAware ADS-B
Fri 15:50:24 29.8087 -96.5775 275° West 242 278 36,400 -1,200 Descending FlightAware ADS-B
Fri 15:50:44 29.8106 -96.6037 275° West 242 278 36,000 -1,297 Descending FlightAware ADS-B
Fri 15:51:01 29.8122 -96.6255 275° West 244 281 35,600 -1,548 Descending FlightAware ADS-B
Fri 15:51:15 29.8135 -96.6429 275° West 245 282 35,200 -1,500 Descending FlightAware ADS-B
Fri 15:51:37 29.8157 -96.6719 275° West 247 284 34,700 -1,400 Descending FlightAware ADS-B
Fri 15:51:45 29.8165 -96.6823 275° West 247 284 34,500 -1,421 Descending FlightAware ADS-B
Fri 15:52:15 29.8194 -96.7217 275° West 249 287 33,800 -1,412 Descending FlightAware ADS-B
Fri 15:52:36 29.8214 -96.7494 275° West 247 284 33,300 -1,400 Descending FlightAware ADS-B
Fri 15:52:45 29.8223 -96.7617 275° West 251 289 33,100 -1,463 Descending FlightAware ADS-B
Fri 15:53:17 29.8254 -96.8046 275° West 253 291 32,300 -1,452 Descending FlightAware ADS-B
Fri 15:53:47 29.8283 -96.8450 275° West 253 291 31,600 -1,400 Descending FlightAware ADS-B
Fri 15:54:17 29.8312 -96.8855 275° West 254 292 30,900 -1,500 Descending FlightAware ADS-B
Fri 15:54:47 29.8341 -96.9258 275° West 253 291 30,100 -1,475 Descending FlightAware ADS-B
Fri 15:55:18 29.8370 -96.9669 275° West 252 290 29,400 -1,333 Descending FlightAware ADS-B
Fri 15:55:32 29.8383 -96.9851 275° West 253 291 29,100 -1,355 Descending FlightAware ADS-B
Fri 15:55:49 29.8400 -97.0087 275° West 254 292 28,700 -1,500 Descending FlightAware ADS-B
Fri 15:56:16 29.8425 -97.0441 275° West 256 295 28,000 -1,548 Descending FlightAware ADS-B
Fri 15:56:20 29.8429 -97.0497 275° West 256 295 27,900 -1,355 Descending FlightAware ADS-B
Fri 15:56:47 29.8454 -97.0858 275° West 258 297 27,300 -1,355 Descending FlightAware ADS-B
Fri 15:56:51 29.8459 -97.0923 275° West 258 297 27,200 -1,600 Descending FlightAware ADS-B
Fri 15:57:17 29.8484 -97.1287 275° West 259 298 26,500 -1,600 Descending FlightAware ADS-B
Fri 15:57:21 29.8488 -97.1340 275° West 260 299 26,400 -1,313 Descending FlightAware ADS-B
Fri 15:57:49 29.8514 -97.1723 274° West 260 299 25,800 -1,355 Descending FlightAware ADS-B
Fri 15:57:52 29.8516 -97.1758 274° West 260 299 25,700 -1,459 Descending FlightAware ADS-B
Fri 15:58:26 29.8549 -97.2225 275° West 258 297 24,900 -1,406 Descending FlightAware ADS-B
Fri 15:58:56 29.8577 -97.2624 275° West 244 281 24,200 -1,355 Descending FlightAware ADS-B
Fri 15:59:28 29.8603 -97.3015 274° West 237 273 23,500 -1,500 Descending FlightAware ADS-B
Fri 15:59:32 29.8608 -97.3080 275° West 237 273 23,300 -1,600 Descending FlightAware ADS-B
Fri 15:59:58 29.8630 -97.3405 274° West 241 277 22,700 -1,400 Descending FlightAware ADS-B
Fri 16:00:02 29.8634 -97.3458 275° West 241 277 22,600 -1,548 Descending FlightAware ADS-B
Fri 16:00:29 29.8657 -97.3810 274° West 259 298 21,900 -1,579 Descending FlightAware ADS-B
Fri 16:00:40 29.8667 -97.3969 274° West 265 305 21,600 -1,600 Descending FlightAware ADS-B
Fri 16:00:59 29.8685 -97.4240 274° West 271 312 21,100 -1,688 Descending FlightAware ADS-B
Fri 16:01:12 29.8697 -97.4419 274° West 274 315 20,700 -1,742 Descending FlightAware ADS-B
Fri 16:01:30 29.8715 -97.4686 274° West 275 316 20,200 -1,600 Descending FlightAware ADS-B
Fri 16:01:42 29.8727 -97.4863 274° West 276 318 19,900 -1,600 Descending FlightAware ADS-B
Fri 16:02:00 29.8744 -97.5126 274° West 278 320 19,400 -1,742 Descending FlightAware ADS-B
Fri 16:02:13 29.8758 -97.5328 275° West 278 320 19,000 -1,548 Descending FlightAware ADS-B
Fri 16:02:31 29.8775 -97.5589 274° West 278 320 18,600 -1,622 Descending FlightAware ADS-B
Fri 16:02:50 29.8794 -97.5872 274° West 286 329 18,000 -1,800 Descending FlightAware ADS-B
Fri 16:03:01 29.8805 -97.6047 274° West 299 344 17,700 -1,737 Descending FlightAware ADS-B
Fri 16:03:28 29.8832 -97.6479 274° West 318 366 16,900 -1,688 Descending FlightAware ADS-B
Fri 16:03:33 29.8838 -97.6563 275° West 319 367 16,800 -1,714 Descending FlightAware ADS-B
Fri 16:04:03 29.8871 -97.7068 274° West 311 358 15,900 -1,800 Descending FlightAware ADS-B
Fri 16:04:13 29.8883 -97.7243 275° West 314 361 15,600 -1,688 Descending FlightAware ADS-B
Fri 16:04:35 29.8905 -97.7591 274° West 299 344 15,000 -1,600 Descending FlightAware ADS-B
Fri 16:04:43 29.8914 -97.7722 275° West 305 351 14,800 -1,355 Descending FlightAware ADS-B
Fri 16:05:06 29.8937 -97.8068 274° West 291 335 14,300 -1,472 Descending FlightAware ADS-B
Fri 16:05:36 29.8957 -97.8538 273° West 285 328 13,500 -1,600 Descending FlightAware ADS-B
Fri 16:05:51 29.8915 -97.8745 257° West 281 323 13,100 -1,500 Descending FlightAware ADS-B
Fri 16:05:56 29.8884 -97.8825 246° West 278 320 13,000 -667 Descending FlightAware ADS-B
Fri 16:06:27 29.8717 -97.9209 243° Southwest 262 302 12,700 -787 Descending FlightAware ADS-B
Fri 16:06:57 29.8565 -97.9582 245° Southwest 255 293 12,200 -1,000 Descending FlightAware ADS-B
Fri 16:07:27 29.8408 -97.9957 244° Southwest 251 289 11,700 -1,082 Descending FlightAware ADS-B
Fri 16:07:58 29.8254 -98.0320 244° Southwest 249 287 11,100 -1,082 Descending FlightAware ADS-B
Fri 16:08:28 29.8103 -98.0676 244° Southwest 245 282 10,600 -1,100 Descending FlightAware ADS-B
Fri 16:08:58 29.7955 -98.1028 244° Southwest 243 280 10,000 -1,116 Descending FlightAware ADS-B
Fri 16:09:11 29.7893 -98.1175 244° Southwest 241 277 9,800 -923 Descending FlightAware ADS-B
Fri 16:09:24 29.7829 -98.1327 244° Southwest 240 276 9,600 -1,034 Descending FlightAware ADS-B
Fri 16:09:40 29.7750 -98.1514 244° Southwest 237 273 9,300 -1,125 Descending FlightAware ADS-B
Fri 16:09:56 29.7673 -98.1695 244° Southwest 234 269 9,000 -1,059 Descending FlightAware ADS-B
Fri 16:10:14 29.7589 -98.1895 244° Southwest 233 268 8,700 -1,059 Descending FlightAware ADS-B
Fri 16:10:30 29.7517 -98.2066 244° Southwest 232 267 8,400 -1,273 Descending FlightAware ADS-B
Fri 16:10:47 29.7437 -98.2255 244° Southwest 232 267 8,000 -1,273 Descending FlightAware ADS-B
Fri 16:11:03 29.7362 -98.2432 244° Southwest 232 267 7,700 -1,125 Descending FlightAware ADS-B
Fri 16:11:19 29.7287 -98.2612 244° Southwest 234 269 7,400 -1,161 Descending FlightAware ADS-B
Fri 16:11:34 29.7213 -98.2787 244° Southwest 238 274 7,100 -1,448 Descending FlightAware ADS-B
Fri 16:11:48 29.7146 -98.2945 244° Southwest 241 277 6,700 -1,400 Descending FlightAware ADS-B
Fri 16:12:04 29.7070 -98.3122 244° Southwest 239 275 6,400 -1,355 Descending FlightAware ADS-B
Fri 16:12:19 29.6993 -98.3302 244° Southwest 237 273 6,000 -938 Descending FlightAware ADS-B
Fri 16:12:36 29.6917 -98.3481 244° Southwest 228 262 5,900 -182 Descending FlightAware ADS-B
Fri 16:12:52 29.6845 -98.3651 244° Southwest 218 251 5,900  Level FlightAware ADS-B
Fri 16:13:07 29.6777 -98.3811 244° Southwest 210 242 5,900  Level FlightAware ADS-B
Fri 16:13:23 29.6712 -98.3964 244° Southwest 204 235 5,900  Level FlightAware ADS-B
Fri 16:13:46 29.6619 -98.4183 244° Southwest 201 231 5,900  Level FlightAware ADS-B
Fri 16:13:58 29.6569 -98.4301 244° Southwest 195 224 5,900  Level FlightAware ADS-B
Fri 16:14:03 29.6550 -98.4350 246° West 196 226 5,900  Level FlightAware ADS-B
Fri 16:14:10 29.6538 -98.4420 259° West 201 231 5,900  Level FlightAware ADS-B
Fri 16:14:14 29.6538 -98.4458 270° West 205 236 5,900  Level FlightAware ADS-B
Fri 16:14:17 29.6542 -98.4497 277° West 209 241 5,900  Level FlightAware ADS-B
Fri 16:14:22 29.6557 -98.4550 288° West 214 246 5,900  Level FlightAware ADS-B
Fri 16:14:25 29.6569 -98.4580 295° West 217 250 5,900  Level FlightAware ADS-B
Fri 16:14:29 29.6591 -98.4621 302° West 222 255 5,900 -750 Level FlightAware ADS-B
Fri 16:14:33 29.6619 -98.4665 306° West 225 259 5,800 -500 Descending FlightAware ADS-B
Fri 16:14:41 29.6666 -98.4730 310° West 226 260 5,800 261 Level FlightAware ADS-B
Fri 16:14:56 29.6776 -98.4873 312° West 225 259 5,900 194 Climbing FlightAware ADS-B
Fri 16:15:12 29.6882 -98.5012 311° West 222 255 5,900 -1,053 Level FlightAware ADS-B
Fri 16:15:53 29.7169 -98.5398 311° West 222 255 4,900 -1,467 Descending FlightAware ADS-B
Fri 16:15:57 29.7196 -98.5436 309° West 244 281 4,800 -1,385 Descending FlightAware ADS-B
Fri 16:16:19 29.7339 -98.5664 306° West 239 275 4,300 -1,440 Descending FlightAware ADS-B
Fri 16:16:22 29.7350 -98.5699 290° West 233 268 4,200 -1,000 Descending FlightAware ADS-B
Fri 16:16:25 29.7357 -98.5736 282° West 229 264 4,200 -1,125 Level FlightAware ADS-B
Fri 16:16:38 29.7340 -98.5892 263° West 210 242 3,900 -1,017 Descending FlightAware ADS-B
Fri 16:17:24 29.7069 -98.6197 263° West 190 219 3,200 -738 Descending Houston Center
Fri 16:17:43 29.6961 -98.6306 221° Southwest 191 220 3,100 -295 Descending Houston Center
Fri 16:18:25 29.6708 -98.6383 195° South 149 171 2,900 -97 Descending Houston Center
Fri 16:18:45 29.6558 -98.6275 148° Southeast 158 182 3,000 98 Climbing Houston Center
Fri 16:19:26 29.6342 -98.6044 137° Southeast 153 176 3,000  Level Houston Center
Fri 16:19:47 29.6261 -98.5928 128° Southeast 152 175 3,000  Level Houston Center
Fri 16:20:27 29.6081 -98.5714 134° Southeast 135 155 3,000 -190 Level Houston Center
Fri 16:20:50 29.6000 -98.5589 127° Southeast 136 157 2,800 -984 Descending Houston Center
Fri 16:21:28 29.5844 -98.5431 138° Southeast 126 145 2,000 -968 Descending Houston Center
Fri 16:21:52 29.5753 -98.5272 124° Southeast 133 153 1,800 -590 Descending Houston Center
Fri 16:22:29 29.5622 -98.5047 124° Southeast 142 163 1,400 -581 Descending Houston Center
Fri 16:22:54 29.5511 -98.4894 130° Southeast 137 158 1,200 -414 Descending Houston Center
Fri 16:23:56 29.5339 -98.4683 133° Southeast 96 110 800 -387 Descending Houston Center
Fri 16:25:00 29.5340 -98.4691 176° South  Level Estimated
Fri 16:32:00 29.5333 -98.4667 12° North  Level FlightAware Approximate

Login

Don't have an account? Register now (free) for customized features, flight alerts, and more!